createdAt,value
2019-05-19T00:00:34.623Z,17.80
2019-05-19T00:01:34.620Z,15.90
2019-05-19T00:02:34.611Z,19.30
2019-05-19T00:03:34.587Z,19.10
2019-05-19T00:04:34.588Z,15.70
2019-05-19T00:05:34.589Z,17.60
2019-05-19T00:06:34.552Z,18.40
2019-05-19T00:07:34.579Z,20.50
2019-05-19T00:08:34.522Z,19.50
2019-05-19T00:09:34.537Z,19.10
2019-05-19T00:10:34.512Z,17.00
2019-05-19T00:11:34.515Z,19.10
2019-05-19T00:12:34.514Z,19.80
2019-05-19T00:13:34.487Z,20.30
2019-05-19T00:14:34.478Z,19.60
2019-05-19T00:15:34.450Z,18.70
2019-05-19T00:16:34.434Z,21.90
2019-05-19T00:17:34.448Z,20.80
2019-05-19T00:18:34.430Z,20.00
2019-05-19T00:19:34.399Z,19.70
2019-05-19T00:20:34.396Z,22.00
2019-05-19T00:21:34.390Z,17.10
2019-05-19T00:22:34.389Z,18.00
2019-05-19T00:23:34.371Z,17.80
2019-05-19T00:24:34.374Z,20.10
2019-05-19T00:25:34.355Z,17.50
2019-05-19T00:26:34.336Z,17.80
2019-05-19T00:27:34.333Z,19.00
2019-05-19T00:28:34.325Z,16.00
2019-05-19T00:29:34.294Z,22.10
2019-05-19T00:30:34.284Z,17.80
2019-05-19T00:31:34.283Z,20.70
2019-05-19T00:32:34.291Z,17.90
2019-05-19T00:33:34.248Z,18.70
2019-05-19T00:34:34.261Z,19.70
2019-05-19T00:35:34.240Z,18.80
2019-05-19T00:36:34.221Z,18.80
2019-05-19T00:37:34.567Z,19.30
2019-05-19T00:38:34.204Z,18.10
2019-05-19T00:39:34.191Z,17.60
2019-05-19T00:40:34.173Z,17.10
2019-05-19T00:41:34.159Z,20.80
2019-05-19T00:42:34.164Z,15.90
2019-05-19T00:43:34.146Z,17.60
2019-05-19T00:44:34.150Z,17.20
2019-05-19T00:45:34.126Z,17.30
2019-05-19T00:46:34.111Z,16.40
2019-05-19T00:47:34.109Z,16.90
2019-05-19T00:48:34.087Z,16.70
2019-05-19T00:49:41.391Z,15.40
2019-05-19T00:50:35.062Z,15.90
2019-05-19T00:51:34.051Z,18.00
2019-05-19T00:52:34.071Z,15.30
2019-05-19T00:53:34.034Z,15.00
2019-05-19T00:54:34.017Z,15.40
2019-05-19T00:55:34.024Z,19.40
2019-05-19T00:56:33.997Z,17.50
2019-05-19T00:57:34.004Z,14.40
2019-05-19T00:58:33.979Z,16.90
2019-05-19T00:59:33.973Z,17.80
2019-05-19T01:00:33.958Z,18.00
2019-05-19T01:01:33.946Z,17.30
2019-05-19T01:02:33.940Z,15.80
2019-05-19T01:03:33.925Z,18.80
2019-05-19T01:04:33.907Z,21.60
2019-05-19T01:05:33.893Z,15.50
2019-05-19T01:06:33.887Z,16.90
2019-05-19T01:07:33.894Z,15.80
2019-05-19T01:08:33.868Z,16.30
2019-05-19T01:09:33.854Z,16.10
2019-05-19T01:10:33.850Z,15.80
2019-05-19T01:11:33.834Z,17.90
2019-05-19T01:12:33.826Z,14.90
2019-05-19T01:13:33.805Z,14.50
2019-05-19T01:14:33.808Z,14.20
2019-05-19T01:15:33.788Z,15.70
2019-05-19T01:16:33.792Z,17.60
2019-05-19T01:17:33.768Z,17.70
2019-05-19T01:18:33.776Z,15.30
2019-05-19T01:19:33.751Z,14.70
2019-05-19T01:20:33.769Z,13.60
2019-05-19T01:21:33.728Z,14.20
2019-05-19T01:22:33.722Z,16.60
2019-05-19T01:23:33.714Z,13.30
2019-05-19T01:24:33.684Z,14.40
2019-05-19T01:25:33.673Z,16.20
2019-05-19T01:26:33.656Z,13.60
2019-05-19T01:27:33.657Z,14.30
2019-05-19T01:28:33.663Z,14.50
2019-05-19T01:29:33.642Z,13.40
2019-05-19T01:30:33.624Z,14.90
2019-05-19T01:31:33.633Z,14.70
2019-05-19T01:32:33.591Z,14.10
2019-05-19T01:33:33.601Z,12.80
2019-05-19T01:34:33.570Z,15.70
2019-05-19T01:35:33.568Z,16.20
2019-05-19T01:36:33.558Z,14.10
2019-05-19T01:37:33.581Z,12.70
2019-05-19T01:38:33.592Z,13.60
2019-05-19T01:39:33.531Z,13.70
2019-05-19T01:40:33.515Z,14.00
2019-05-19T01:41:33.515Z,16.20
2019-05-19T01:42:33.498Z,13.20
2019-05-19T01:43:33.492Z,13.90
2019-05-19T01:44:33.454Z,13.30
2019-05-19T01:45:33.980Z,14.60
2019-05-19T01:46:33.431Z,17.10
2019-05-19T01:47:33.435Z,14.80
2019-05-19T01:48:33.439Z,13.00
2019-05-19T01:49:33.411Z,13.60
2019-05-19T01:50:33.403Z,13.00
2019-05-19T01:51:33.380Z,12.70
2019-05-19T01:52:33.373Z,13.00
2019-05-19T01:53:33.384Z,13.20
2019-05-19T01:54:33.362Z,13.00
2019-05-19T01:55:33.343Z,12.70
2019-05-19T01:56:33.319Z,14.30
2019-05-19T01:57:33.334Z,14.60
2019-05-19T01:58:33.336Z,13.90
2019-05-19T01:59:33.309Z,14.30
2019-05-19T02:00:33.289Z,12.60
2019-05-19T02:01:33.303Z,14.10
2019-05-19T02:02:33.286Z,13.00
2019-05-19T02:03:33.286Z,14.30
2019-05-19T02:04:33.246Z,11.80
2019-05-19T02:05:33.234Z,14.00
2019-05-19T02:06:33.208Z,13.10
2019-05-19T02:07:33.244Z,14.30
2019-05-19T02:08:33.209Z,13.50
2019-05-19T02:09:33.182Z,15.10
2019-05-19T02:10:33.168Z,13.00
2019-05-19T02:11:33.181Z,13.20
2019-05-19T02:12:33.165Z,14.90
2019-05-19T02:13:33.164Z,10.60
2019-05-19T02:14:33.148Z,14.10
2019-05-19T02:15:33.124Z,11.80
2019-05-19T02:16:33.120Z,11.30
2019-05-19T02:17:33.096Z,13.00
2019-05-19T02:18:33.104Z,12.10
2019-05-19T02:19:33.090Z,11.90
2019-05-19T02:20:34.007Z,13.50
2019-05-19T02:21:33.062Z,14.50
2019-05-19T02:22:33.056Z,12.60
2019-05-19T02:23:33.060Z,12.40
2019-05-19T02:24:33.026Z,12.20
2019-05-19T02:25:33.020Z,12.70
2019-05-19T02:26:33.035Z,14.20
2019-05-19T02:27:32.987Z,12.00
2019-05-19T02:28:32.992Z,12.10
2019-05-19T02:29:32.965Z,12.30
2019-05-19T02:30:32.973Z,12.80
2019-05-19T02:31:32.962Z,13.50
2019-05-19T02:32:32.941Z,15.70
2019-05-19T02:33:35.638Z,14.40
2019-05-19T02:34:32.928Z,11.50
2019-05-19T02:35:32.904Z,15.60
2019-05-19T02:36:32.890Z,11.80
2019-05-19T02:37:32.882Z,13.20
2019-05-19T02:38:32.881Z,11.30
2019-05-19T02:39:32.866Z,14.60
2019-05-19T02:40:32.864Z,12.10
2019-05-19T02:41:32.830Z,13.90
2019-05-19T02:42:32.812Z,16.10
2019-05-19T02:43:32.836Z,13.30
2019-05-19T02:44:32.806Z,11.80
2019-05-19T02:45:32.798Z,12.60
2019-05-19T02:46:32.797Z,13.00
2019-05-19T02:47:32.784Z,13.00
2019-05-19T02:48:32.757Z,13.70
2019-05-19T02:49:32.738Z,13.00
2019-05-19T02:50:50.536Z,11.70
2019-05-19T02:51:33.818Z,13.10
2019-05-19T02:52:32.718Z,12.20
2019-05-19T02:53:32.758Z,12.10
2019-05-19T02:54:32.723Z,12.70
2019-05-19T02:55:32.671Z,13.00
2019-05-19T02:56:32.669Z,14.80
2019-05-19T02:57:32.666Z,12.40
2019-05-19T02:58:32.653Z,13.90
2019-05-19T02:59:32.643Z,15.10
2019-05-19T03:00:32.621Z,13.40
2019-05-19T03:01:32.608Z,14.40
2019-05-19T03:02:32.599Z,14.20
2019-05-19T03:03:32.594Z,14.00
2019-05-19T03:04:32.610Z,13.60
2019-05-19T03:05:32.571Z,13.50
2019-05-19T03:06:32.575Z,15.00
2019-05-19T03:07:32.632Z,12.20
2019-05-19T03:08:32.537Z,12.70
2019-05-19T03:09:32.535Z,12.90
2019-05-19T03:10:32.514Z,13.70
2019-05-19T03:11:32.512Z,13.80
2019-05-19T03:12:32.487Z,13.80
2019-05-19T03:13:32.476Z,13.20
2019-05-19T03:14:32.484Z,15.10
2019-05-19T03:15:32.460Z,11.50
2019-05-19T03:16:32.453Z,11.10
2019-05-19T03:17:32.453Z,13.60
2019-05-19T03:18:32.426Z,12.10
2019-05-19T03:19:32.425Z,13.00
2019-05-19T03:20:32.400Z,10.90
2019-05-19T03:21:32.384Z,12.60
2019-05-19T03:22:32.383Z,16.20
2019-05-19T03:23:32.389Z,15.80
2019-05-19T03:24:32.400Z,12.80
2019-05-19T03:25:32.348Z,13.60
2019-05-19T03:26:32.348Z,12.80
2019-05-19T03:27:32.341Z,14.40
2019-05-19T03:28:32.309Z,15.60
2019-05-19T03:29:32.327Z,14.20
2019-05-19T03:30:32.302Z,13.10
2019-05-19T03:31:32.275Z,13.30
2019-05-19T03:32:32.269Z,12.80
2019-05-19T03:33:32.279Z,12.80
2019-05-19T03:34:32.261Z,14.20
2019-05-19T03:35:32.256Z,12.80
2019-05-19T03:36:32.219Z,14.40
2019-05-19T03:37:32.220Z,12.70
2019-05-19T03:38:32.206Z,13.00
2019-05-19T03:39:32.202Z,12.20
2019-05-19T03:40:32.202Z,13.00
2019-05-19T03:41:32.175Z,12.70
2019-05-19T03:42:32.158Z,14.80
2019-05-19T03:43:32.159Z,13.30
2019-05-19T03:44:32.164Z,15.90
2019-05-19T03:45:32.113Z,12.70
2019-05-19T03:46:32.104Z,11.60
2019-05-19T03:47:32.123Z,13.00
2019-05-19T03:48:32.099Z,13.90
2019-05-19T03:49:32.098Z,14.40
2019-05-19T03:50:32.075Z,12.70
2019-05-19T03:51:32.190Z,13.00
2019-05-19T03:52:32.048Z,12.70
2019-05-19T03:53:32.038Z,12.50
2019-05-19T03:54:32.045Z,15.20
2019-05-19T03:55:32.039Z,12.50
2019-05-19T03:56:32.006Z,13.40
2019-05-19T03:57:32.022Z,13.60
2019-05-19T03:58:31.994Z,12.90
2019-05-19T03:59:31.989Z,13.20
2019-05-19T04:00:31.967Z,16.10
2019-05-19T04:01:31.952Z,11.50
2019-05-19T04:02:31.947Z,11.70
2019-05-19T04:03:31.928Z,11.90
2019-05-19T04:04:31.929Z,13.30
2019-05-19T04:05:31.908Z,11.20
2019-05-19T04:06:31.899Z,13.20
2019-05-19T04:07:31.892Z,14.60
2019-05-19T04:08:31.895Z,11.90
2019-05-19T04:09:31.888Z,10.20
2019-05-19T04:10:31.851Z,13.30
2019-05-19T04:11:31.826Z,11.30
2019-05-19T04:12:31.831Z,12.60
2019-05-19T04:13:31.821Z,12.40
2019-05-19T04:14:31.822Z,11.80
2019-05-19T04:15:31.793Z,12.10
2019-05-19T04:16:31.793Z,11.80
2019-05-19T04:17:31.765Z,13.70
2019-05-19T04:18:31.756Z,14.10
2019-05-19T04:19:31.764Z,12.80
2019-05-19T04:20:31.762Z,12.90
2019-05-19T04:21:47.650Z,11.70
2019-05-19T04:22:32.723Z,14.90
2019-05-19T04:23:31.701Z,12.50
2019-05-19T04:24:31.742Z,13.80
2019-05-19T04:25:31.732Z,15.30
2019-05-19T04:26:31.662Z,14.20
2019-05-19T04:27:31.662Z,15.40
2019-05-19T04:28:31.647Z,13.00
2019-05-19T04:29:31.643Z,12.40
2019-05-19T04:30:31.643Z,12.20
2019-05-19T04:31:31.622Z,12.30
2019-05-19T04:32:31.605Z,12.00
2019-05-19T04:33:31.595Z,12.00
2019-05-19T04:34:31.577Z,12.80
2019-05-19T04:35:31.567Z,10.10
2019-05-19T04:36:31.551Z,14.00
2019-05-19T04:37:31.548Z,12.50
2019-05-19T04:38:31.538Z,10.80
2019-05-19T04:39:31.526Z,11.90
2019-05-19T04:40:31.532Z,12.80
2019-05-19T04:41:31.513Z,10.70
2019-05-19T04:42:31.500Z,12.00
2019-05-19T04:43:31.478Z,12.30
2019-05-19T04:44:31.468Z,12.10
2019-05-19T04:45:31.478Z,12.20
2019-05-19T04:46:31.448Z,11.60
2019-05-19T04:47:31.439Z,12.40
2019-05-19T04:48:31.438Z,9.80
2019-05-19T04:49:31.411Z,13.40
2019-05-19T04:50:31.497Z,13.40
2019-05-19T04:51:31.396Z,11.80
2019-05-19T04:52:31.393Z,10.70
2019-05-19T04:53:31.368Z,12.80
2019-05-19T04:54:31.381Z,12.50
2019-05-19T04:55:31.351Z,14.00
2019-05-19T04:56:31.341Z,11.40
2019-05-19T04:57:31.326Z,11.70
2019-05-19T04:58:31.322Z,13.40
2019-05-19T04:59:31.310Z,11.50
2019-05-19T05:00:31.311Z,10.80
2019-05-19T05:01:31.293Z,11.20
2019-05-19T05:02:31.282Z,13.90
2019-05-19T05:03:31.258Z,13.30
2019-05-19T05:04:31.254Z,10.90
2019-05-19T05:05:31.260Z,12.00
2019-05-19T05:06:31.239Z,12.70
2019-05-19T05:07:31.227Z,12.00
2019-05-19T05:08:31.209Z,11.60
2019-05-19T05:09:31.197Z,13.40
2019-05-19T05:10:31.203Z,14.40
2019-05-19T05:11:31.180Z,11.60
2019-05-19T05:12:31.166Z,12.80
2019-05-19T05:13:31.157Z,10.40
2019-05-19T05:14:31.184Z,12.50
2019-05-19T05:15:31.141Z,12.50
2019-05-19T05:16:31.174Z,13.40
2019-05-19T05:17:31.101Z,10.70
2019-05-19T05:18:31.104Z,11.20
2019-05-19T05:19:31.093Z,12.10
2019-05-19T05:20:31.100Z,12.20
2019-05-19T05:21:31.064Z,11.40
2019-05-19T05:22:31.054Z,12.60
2019-05-19T05:23:31.049Z,14.50
2019-05-19T05:24:31.039Z,11.20
2019-05-19T05:25:31.047Z,12.60
2019-05-19T05:26:31.015Z,12.00
2019-05-19T05:27:30.996Z,12.20
2019-05-19T05:28:30.994Z,11.00
2019-05-19T05:29:30.968Z,11.70
2019-05-19T05:30:30.972Z,12.00
2019-05-19T05:31:30.959Z,13.10
2019-05-19T05:32:30.950Z,12.50
2019-05-19T05:33:30.931Z,11.90
2019-05-19T05:34:30.932Z,11.50
2019-05-19T05:35:30.905Z,13.50
2019-05-19T05:36:30.887Z,11.90
2019-05-19T05:37:30.890Z,11.50
2019-05-19T05:38:30.891Z,11.30
2019-05-19T05:39:30.861Z,12.20
2019-05-19T05:40:30.876Z,13.30
2019-05-19T05:41:30.843Z,12.10
2019-05-19T05:42:31.995Z,11.00
2019-05-19T05:43:30.828Z,10.50
2019-05-19T05:44:30.829Z,12.40
2019-05-19T05:45:30.835Z,12.30
2019-05-19T05:46:30.796Z,10.80
2019-05-19T05:47:30.784Z,13.70
2019-05-19T05:48:30.762Z,11.40
2019-05-19T05:49:30.758Z,13.40
2019-05-19T05:50:30.753Z,13.00
2019-05-19T05:51:30.738Z,11.70
2019-05-19T05:52:38.567Z,13.70
2019-05-19T05:53:31.706Z,11.90
2019-05-19T05:54:30.697Z,12.60
2019-05-19T05:55:30.706Z,13.10
2019-05-19T05:56:30.678Z,10.10
2019-05-19T05:57:30.674Z,13.30
2019-05-19T05:58:30.672Z,12.20
2019-05-19T05:59:30.642Z,12.00
2019-05-19T06:00:30.662Z,12.70
2019-05-19T06:01:30.631Z,12.50
2019-05-19T06:02:30.617Z,10.70
2019-05-19T06:03:30.595Z,11.30
2019-05-19T06:04:30.586Z,13.40
2019-05-19T06:05:30.630Z,11.50
2019-05-19T06:06:30.573Z,11.60
2019-05-19T06:07:30.545Z,11.20
2019-05-19T06:08:30.582Z,11.10
2019-05-19T06:09:30.545Z,12.00
2019-05-19T06:10:30.526Z,11.00
2019-05-19T06:11:30.525Z,12.90
2019-05-19T06:12:30.497Z,10.80
2019-05-19T06:13:30.490Z,12.30
2019-05-19T06:14:30.474Z,11.40
2019-05-19T06:15:30.470Z,10.30
2019-05-19T06:16:30.478Z,10.40
2019-05-19T06:17:30.464Z,11.70
2019-05-19T06:18:30.440Z,9.90
2019-05-19T06:19:30.430Z,11.00
2019-05-19T06:20:30.417Z,10.10
2019-05-19T06:21:30.411Z,11.20
2019-05-19T06:22:30.381Z,9.70
2019-05-19T06:23:30.405Z,12.40
2019-05-19T06:24:30.378Z,11.50
2019-05-19T06:25:30.481Z,11.20
2019-05-19T06:26:30.358Z,10.60
2019-05-19T06:27:30.347Z,11.60
2019-05-19T06:28:30.324Z,10.50
2019-05-19T06:29:30.323Z,11.20
2019-05-19T06:30:30.324Z,11.40
2019-05-19T06:31:30.309Z,11.40
2019-05-19T06:32:30.279Z,11.10
2019-05-19T06:33:30.266Z,12.10
2019-05-19T06:34:30.312Z,10.90
2019-05-19T06:35:30.261Z,11.50
2019-05-19T06:36:30.261Z,10.80
2019-05-19T06:37:30.228Z,11.40
2019-05-19T06:38:30.225Z,11.40
2019-05-19T06:39:30.204Z,10.50
2019-05-19T06:40:30.198Z,10.50
2019-05-19T06:41:30.209Z,11.20
2019-05-19T06:42:30.181Z,10.00
2019-05-19T06:43:30.168Z,10.20
2019-05-19T06:44:30.153Z,9.00
2019-05-19T06:45:30.345Z,10.50
2019-05-19T06:46:30.146Z,10.40
2019-05-19T06:47:30.189Z,10.60
2019-05-19T06:48:30.137Z,8.50
2019-05-19T06:49:30.106Z,10.70
2019-05-19T06:50:30.119Z,9.70
2019-05-19T06:51:30.102Z,9.00
2019-05-19T06:52:30.068Z,8.80
2019-05-19T06:53:30.067Z,8.50
2019-05-19T06:54:30.068Z,8.20
2019-05-19T06:55:30.073Z,8.70
2019-05-19T06:56:30.061Z,7.90
2019-05-19T06:57:30.025Z,8.20
2019-05-19T06:58:30.004Z,8.80
2019-05-19T06:59:30.010Z,8.50
2019-05-19T07:00:29.993Z,8.40
2019-05-19T07:01:30.006Z,9.00
2019-05-19T07:02:29.975Z,9.80
2019-05-19T07:03:29.982Z,8.00
2019-05-19T07:04:29.939Z,8.80
2019-05-19T07:05:29.939Z,11.30
2019-05-19T07:06:29.934Z,7.20
2019-05-19T07:07:29.922Z,8.30
2019-05-19T07:08:29.916Z,8.00
2019-05-19T07:09:29.970Z,9.40
2019-05-19T07:10:29.891Z,8.30
2019-05-19T07:11:29.889Z,8.40
2019-05-19T07:12:29.863Z,9.30
2019-05-19T07:13:29.863Z,8.20
2019-05-19T07:14:29.861Z,8.00
2019-05-19T07:15:29.824Z,7.90
2019-05-19T07:16:29.843Z,9.60
2019-05-19T07:17:29.829Z,9.40
2019-05-19T07:18:29.809Z,8.10
2019-05-19T07:19:29.802Z,7.40
2019-05-19T07:20:29.801Z,8.00
2019-05-19T07:21:29.801Z,7.80
2019-05-19T07:22:29.781Z,7.00
2019-05-19T07:23:29.753Z,10.20
2019-05-19T07:24:29.740Z,9.70
2019-05-19T07:25:29.728Z,7.10
2019-05-19T07:26:29.737Z,8.40
2019-05-19T07:27:29.717Z,7.90
2019-05-19T07:28:29.707Z,9.20
2019-05-19T07:29:29.678Z,7.70
2019-05-19T07:30:29.679Z,8.00
2019-05-19T07:31:29.702Z,7.70
2019-05-19T07:32:29.694Z,9.50
2019-05-19T07:33:29.655Z,7.70
2019-05-19T07:34:29.653Z,7.10
2019-05-19T07:35:29.618Z,8.00
2019-05-19T07:36:29.678Z,7.30
2019-05-19T07:37:29.611Z,7.40
2019-05-19T07:38:29.601Z,8.10
2019-05-19T07:39:29.588Z,6.70
2019-05-19T07:40:29.588Z,6.30
2019-05-19T07:41:29.592Z,7.40
2019-05-19T07:42:29.571Z,7.00
2019-05-19T07:43:29.547Z,6.80
2019-05-19T07:44:29.544Z,6.70
2019-05-19T07:45:29.529Z,9.50
2019-05-19T07:46:29.536Z,7.80
2019-05-19T07:47:29.502Z,6.60
2019-05-19T07:48:29.506Z,6.60
2019-05-19T07:49:29.494Z,7.10
2019-05-19T07:50:29.481Z,8.60
2019-05-19T07:51:29.531Z,8.60
2019-05-19T07:52:29.466Z,9.40
2019-05-19T07:53:42.171Z,9.40
2019-05-19T07:54:30.447Z,8.10
2019-05-19T07:55:29.421Z,6.10
2019-05-19T07:56:29.429Z,6.20
2019-05-19T07:57:29.404Z,7.40
2019-05-19T07:58:29.395Z,5.80
2019-05-19T07:59:29.387Z,7.70
2019-05-19T08:00:29.492Z,8.00
2019-05-19T08:01:29.399Z,6.70
2019-05-19T08:02:29.366Z,8.60
2019-05-19T08:03:29.384Z,8.10
2019-05-19T08:04:29.340Z,11.60
2019-05-19T08:05:29.335Z,5.80
2019-05-19T08:06:29.353Z,8.60
2019-05-19T08:07:29.722Z,7.10
2019-05-19T08:08:29.308Z,5.40
2019-05-19T08:09:29.282Z,5.80
2019-05-19T08:10:29.374Z,6.00
2019-05-19T08:11:29.285Z,5.70
2019-05-19T08:12:29.452Z,8.20
2019-05-19T08:13:29.379Z,7.30
2019-05-19T08:14:29.309Z,8.10
2019-05-19T08:15:29.231Z,5.20
2019-05-19T08:16:29.234Z,5.10
2019-05-19T08:17:29.239Z,7.20
2019-05-19T08:18:29.210Z,5.00
2019-05-19T08:19:29.202Z,4.70
2019-05-19T08:20:29.195Z,5.40
2019-05-19T08:21:29.176Z,5.60
2019-05-19T08:22:29.170Z,5.30
2019-05-19T08:23:29.214Z,5.30
2019-05-19T08:24:29.144Z,5.10
2019-05-19T08:25:29.153Z,6.80
2019-05-19T08:26:29.135Z,5.80
2019-05-19T08:27:29.132Z,6.40
2019-05-19T08:28:29.107Z,4.70
2019-05-19T08:29:29.101Z,5.80
2019-05-19T08:30:29.129Z,5.00
2019-05-19T08:31:29.126Z,6.00
2019-05-19T08:32:29.089Z,5.80
2019-05-19T08:33:29.077Z,4.30
2019-05-19T08:34:29.068Z,6.20
2019-05-19T08:35:29.052Z,6.60
2019-05-19T08:36:29.041Z,5.20
2019-05-19T08:37:29.046Z,5.60
2019-05-19T08:38:29.019Z,4.50
2019-05-19T08:39:29.010Z,4.30
2019-05-19T08:40:29.005Z,5.70
2019-05-19T08:41:28.981Z,4.50
2019-05-19T08:42:28.997Z,4.10
2019-05-19T08:43:28.966Z,4.30
2019-05-19T08:44:28.995Z,4.50
2019-05-19T08:45:28.955Z,5.40
2019-05-19T08:46:28.955Z,4.60
2019-05-19T08:47:28.958Z,4.20
2019-05-19T08:48:28.929Z,6.80
2019-05-19T08:49:28.924Z,4.70
2019-05-19T08:50:28.914Z,5.60
2019-05-19T08:51:28.895Z,6.50
2019-05-19T08:52:28.894Z,4.70
2019-05-19T08:53:28.869Z,4.50
2019-05-19T08:54:28.866Z,4.50
2019-05-19T08:55:28.871Z,4.50
2019-05-19T08:56:28.850Z,4.30
2019-05-19T08:57:28.852Z,4.10
2019-05-19T08:58:28.831Z,4.40
2019-05-19T08:59:28.807Z,5.10
2019-05-19T09:00:28.850Z,4.60
2019-05-19T09:01:28.794Z,3.80
2019-05-19T09:02:28.796Z,5.10
2019-05-19T09:03:28.822Z,4.60
2019-05-19T09:04:28.778Z,4.90
2019-05-19T09:05:28.755Z,6.10
2019-05-19T09:06:28.737Z,4.20
2019-05-19T09:07:28.759Z,5.90
2019-05-19T09:08:28.729Z,4.20
2019-05-19T09:09:28.721Z,4.40
2019-05-19T09:10:28.716Z,4.30
2019-05-19T09:11:28.761Z,4.80
2019-05-19T09:12:28.691Z,6.30
2019-05-19T09:13:28.677Z,5.00
2019-05-19T09:14:28.666Z,8.80
2019-05-19T09:15:28.665Z,5.00
2019-05-19T09:16:28.658Z,5.00
2019-05-19T09:17:28.658Z,5.30
2019-05-19T09:18:28.636Z,4.00
2019-05-19T09:19:28.618Z,5.50
2019-05-19T09:20:28.605Z,6.00
2019-05-19T09:21:28.642Z,5.10
2019-05-19T09:22:28.613Z,4.80
2019-05-19T09:23:28.583Z,4.40
2019-05-19T09:24:30.693Z,4.60
2019-05-19T09:25:28.555Z,5.30
2019-05-19T09:26:28.562Z,5.90
2019-05-19T09:27:28.579Z,4.50
2019-05-19T09:28:28.585Z,4.30
2019-05-19T09:29:28.575Z,4.50
2019-05-19T09:30:28.527Z,4.90
2019-05-19T09:31:28.499Z,5.20
2019-05-19T09:32:28.510Z,4.60
2019-05-19T09:33:28.481Z,4.70
2019-05-19T09:34:28.495Z,5.20
2019-05-19T09:35:28.488Z,7.20
2019-05-19T09:36:28.470Z,6.10
2019-05-19T09:37:28.478Z,4.80
2019-05-19T09:38:28.436Z,6.40
2019-05-19T09:39:28.444Z,5.30
2019-05-19T09:40:28.433Z,5.60
2019-05-19T09:41:28.415Z,4.30
2019-05-19T09:42:28.438Z,4.00
2019-05-19T09:43:28.399Z,4.10
2019-05-19T09:44:28.373Z,4.50
2019-05-19T09:45:28.420Z,5.10
2019-05-19T09:46:28.357Z,5.20
2019-05-19T09:47:28.369Z,3.50
2019-05-19T09:48:28.347Z,3.50
2019-05-19T09:49:28.348Z,3.40
2019-05-19T09:50:28.349Z,4.50
2019-05-19T09:51:28.310Z,3.30
2019-05-19T09:52:28.315Z,3.50
2019-05-19T09:53:28.296Z,3.80
2019-05-19T09:54:28.291Z,4.40
2019-05-19T09:55:28.263Z,3.50
2019-05-19T09:56:28.264Z,4.10
2019-05-19T09:57:28.269Z,4.30
2019-05-19T09:58:28.247Z,3.50
2019-05-19T09:59:28.243Z,4.70
2019-05-19T10:00:28.245Z,3.50
2019-05-19T10:01:28.221Z,3.50
2019-05-19T10:02:28.210Z,3.50
2019-05-19T10:03:28.216Z,3.80
2019-05-19T10:04:28.186Z,3.30
2019-05-19T10:05:28.171Z,4.20
2019-05-19T10:06:28.178Z,4.30
2019-05-19T10:07:28.195Z,3.10
2019-05-19T10:08:28.190Z,3.90
2019-05-19T10:09:28.138Z,2.90
2019-05-19T10:10:28.126Z,3.20
2019-05-19T10:11:28.152Z,3.00
2019-05-19T10:12:28.128Z,3.20
2019-05-19T10:13:28.125Z,3.40
2019-05-19T10:14:28.097Z,3.50
2019-05-19T10:15:28.100Z,3.30
2019-05-19T10:16:28.079Z,3.10
2019-05-19T10:17:28.066Z,3.00
2019-05-19T10:18:28.069Z,3.10
2019-05-19T10:19:28.057Z,3.10
2019-05-19T10:20:28.048Z,3.30
2019-05-19T10:21:28.038Z,3.40
2019-05-19T10:22:28.030Z,3.00
2019-05-19T10:23:28.015Z,3.10
2019-05-19T10:24:27.992Z,3.80
2019-05-19T10:25:27.995Z,3.50
2019-05-19T10:26:27.983Z,3.50
2019-05-19T10:27:27.968Z,3.50
2019-05-19T10:28:27.980Z,3.70
2019-05-19T10:29:27.995Z,3.50
2019-05-19T10:30:27.940Z,3.30
2019-05-19T10:31:27.948Z,3.30
2019-05-19T10:32:27.946Z,3.50
2019-05-19T10:33:27.928Z,4.00
2019-05-19T10:34:27.924Z,5.80
2019-05-19T10:35:27.898Z,3.90
2019-05-19T10:36:27.883Z,4.00
2019-05-19T10:37:27.888Z,4.30
2019-05-19T10:38:27.888Z,3.90
2019-05-19T10:39:27.863Z,5.20
2019-05-19T10:40:27.868Z,4.10
2019-05-19T10:41:27.850Z,4.00
2019-05-19T10:42:27.867Z,3.70
2019-05-19T10:43:27.845Z,3.90
2019-05-19T10:44:27.822Z,4.10
2019-05-19T10:45:27.816Z,4.10
2019-05-19T10:46:27.809Z,4.80
2019-05-19T10:47:27.795Z,4.00
2019-05-19T10:48:27.823Z,4.20
2019-05-19T10:49:27.789Z,3.90
2019-05-19T10:50:27.796Z,4.20
2019-05-19T10:51:27.749Z,4.20
2019-05-19T10:52:27.753Z,3.80
2019-05-19T10:53:27.757Z,4.10
2019-05-19T10:54:27.735Z,3.90
2019-05-19T10:55:36.288Z,7.50
2019-05-19T10:56:28.703Z,3.70
2019-05-19T10:57:27.713Z,4.10
2019-05-19T10:58:27.717Z,5.90
2019-05-19T10:59:27.696Z,3.60
2019-05-19T11:00:27.725Z,4.60
2019-05-19T11:01:27.673Z,4.10
2019-05-19T11:02:27.650Z,3.90
2019-05-19T11:03:27.659Z,3.70
2019-05-19T11:04:27.631Z,4.80
2019-05-19T11:05:27.636Z,3.70
2019-05-19T11:06:27.626Z,4.30
2019-05-19T11:07:27.618Z,5.40
2019-05-19T11:08:27.617Z,5.50
2019-05-19T11:09:27.594Z,4.40
2019-05-19T11:10:27.590Z,4.50
2019-05-19T11:11:27.581Z,6.40
2019-05-19T11:12:27.569Z,5.30
2019-05-19T11:13:27.554Z,6.00
2019-05-19T11:14:27.543Z,5.80
2019-05-19T11:15:27.530Z,4.10
2019-05-19T11:16:27.517Z,4.70
2019-05-19T11:17:27.518Z,5.00
2019-05-19T11:18:27.517Z,6.70
2019-05-19T11:19:27.494Z,4.80
2019-05-19T11:20:27.481Z,4.80
2019-05-19T11:21:27.469Z,5.00
2019-05-19T11:22:27.458Z,4.40
2019-05-19T11:23:27.523Z,6.90
2019-05-19T11:24:27.615Z,4.90
2019-05-19T11:25:33.819Z,4.70
2019-05-19T11:26:28.431Z,5.60
2019-05-19T11:27:27.434Z,7.00
2019-05-19T11:28:27.417Z,4.70
2019-05-19T11:29:27.396Z,5.90
2019-05-19T11:30:27.386Z,5.50
2019-05-19T11:31:27.384Z,4.40
2019-05-19T11:32:27.374Z,5.00
2019-05-19T11:33:27.373Z,4.90
2019-05-19T11:34:27.351Z,4.80
2019-05-19T11:35:27.331Z,5.70
2019-05-19T11:36:27.335Z,5.40
2019-05-19T11:37:27.320Z,5.40
2019-05-19T11:38:27.358Z,5.80
2019-05-19T11:39:27.289Z,7.70
2019-05-19T11:40:27.278Z,7.20
2019-05-19T11:41:27.274Z,6.70
2019-05-19T11:42:27.271Z,5.00
2019-05-19T11:43:27.250Z,5.40
2019-05-19T11:44:27.292Z,5.00
2019-05-19T11:45:27.232Z,5.70
2019-05-19T11:46:27.222Z,6.90
2019-05-19T11:47:27.210Z,8.40
2019-05-19T11:48:27.204Z,5.70
2019-05-19T11:49:27.215Z,7.80
2019-05-19T11:50:27.185Z,5.00
2019-05-19T11:51:27.177Z,7.70
2019-05-19T11:52:27.166Z,5.10
2019-05-19T11:53:27.144Z,5.50
2019-05-19T11:54:27.139Z,4.90
2019-05-19T11:55:27.135Z,4.10
2019-05-19T11:56:27.121Z,4.80
2019-05-19T11:57:27.104Z,6.20
2019-05-19T11:58:27.100Z,5.20
2019-05-19T11:59:27.101Z,6.20
2019-05-19T12:00:27.080Z,5.20
2019-05-19T12:01:27.078Z,4.70
2019-05-19T12:02:27.077Z,6.20
2019-05-19T12:03:27.048Z,5.90
2019-05-19T12:04:27.125Z,5.90
2019-05-19T12:05:27.059Z,5.30
2019-05-19T12:06:38.710Z,5.10
2019-05-19T12:07:27.998Z,4.70
2019-05-19T12:08:27.003Z,7.40
2019-05-19T12:09:27.018Z,6.00
2019-05-19T12:10:27.001Z,5.50
2019-05-19T12:11:26.960Z,5.30
2019-05-19T12:12:26.961Z,7.10
2019-05-19T12:13:26.964Z,5.60
2019-05-19T12:14:26.957Z,7.50
2019-05-19T12:15:26.936Z,5.40
2019-05-19T12:16:26.952Z,6.00
2019-05-19T12:17:26.910Z,7.60
2019-05-19T12:18:26.898Z,4.80
2019-05-19T12:19:26.903Z,5.40
2019-05-19T12:20:26.879Z,6.20
2019-05-19T12:21:26.884Z,5.20
2019-05-19T12:22:26.869Z,7.60
2019-05-19T12:23:26.875Z,7.20
2019-05-19T12:24:26.881Z,5.20
2019-05-19T12:25:26.838Z,5.50
2019-05-19T12:26:26.819Z,5.30
2019-05-19T12:27:26.829Z,5.90
2019-05-19T12:28:26.819Z,6.80
2019-05-19T12:29:26.813Z,7.00
2019-05-19T12:30:26.779Z,6.20
2019-05-19T12:31:26.793Z,5.30
2019-05-19T12:32:26.763Z,6.90
2019-05-19T12:33:26.766Z,5.20
2019-05-19T12:34:26.771Z,6.60
2019-05-19T12:35:26.745Z,5.80
2019-05-19T12:36:26.754Z,6.40
2019-05-19T12:37:26.717Z,6.20
2019-05-19T12:38:26.725Z,5.30
2019-05-19T12:39:26.725Z,5.60
2019-05-19T12:40:26.684Z,5.40
2019-05-19T12:41:26.684Z,6.50
2019-05-19T12:42:26.677Z,5.50
2019-05-19T12:43:26.654Z,5.20
2019-05-19T12:44:26.654Z,5.30
2019-05-19T12:45:26.644Z,6.70
2019-05-19T12:46:26.627Z,5.80
2019-05-19T12:47:26.624Z,7.20
2019-05-19T12:48:26.603Z,7.80
2019-05-19T12:49:26.603Z,6.10
2019-05-19T12:50:26.585Z,9.20
2019-05-19T12:51:27.043Z,6.60
2019-05-19T12:52:26.560Z,7.80
2019-05-19T12:53:26.561Z,6.80
2019-05-19T12:54:26.573Z,6.00
2019-05-19T12:55:26.573Z,7.50
2019-05-19T12:56:38.648Z,8.30
2019-05-19T12:57:27.504Z,5.70
2019-05-19T12:58:26.504Z,7.40
2019-05-19T12:59:26.503Z,7.90
2019-05-19T13:00:26.494Z,7.80
2019-05-19T13:01:26.468Z,7.10
2019-05-19T13:02:26.449Z,6.70
2019-05-19T13:03:26.525Z,6.90
2019-05-19T13:04:26.437Z,6.10